createdAt,value
2022-10-07T00:01:11.875Z,98.51
2022-10-07T00:03:12.816Z,98.51
2022-10-07T00:05:14.520Z,98.54
2022-10-07T00:07:16.177Z,98.53
2022-10-07T00:09:18.112Z,98.48
2022-10-07T00:11:19.738Z,98.52
2022-10-07T00:13:21.200Z,98.55
2022-10-07T00:15:22.240Z,98.6
2022-10-07T00:17:23.312Z,98.6
2022-10-07T00:19:24.452Z,98.61
2022-10-07T00:23:27.450Z,98.54
2022-10-07T00:25:28.688Z,98.5
2022-10-07T00:27:30.140Z,98.54
2022-10-07T00:29:31.470Z,98.53
2022-10-07T00:35:35.827Z,98.55
2022-10-07T00:37:37.600Z,98.56
2022-10-07T00:39:38.672Z,98.57
2022-10-07T00:41:40.181Z,98.57
2022-10-07T00:43:41.178Z,98.55
2022-10-07T00:45:43.066Z,98.56
2022-10-07T00:47:44.963Z,98.58
2022-10-07T00:49:46.129Z,98.6
2022-10-07T00:51:47.244Z,98.62
2022-10-07T00:53:48.529Z,98.64
2022-10-07T00:55:50.046Z,98.61
2022-10-07T00:57:51.849Z,98.6
2022-10-07T00:59:53.722Z,98.65
2022-10-07T01:01:55.618Z,98.63
2022-10-07T01:03:56.904Z,98.65
2022-10-07T01:05:58.356Z,98.65
2022-10-07T01:07:59.873Z,98.68
2022-10-07T01:10:01.369Z,98.68
2022-10-07T01:12:02.577Z,98.69
2022-10-07T01:14:03.669Z,98.7
2022-10-07T01:16:05.398Z,98.69
2022-10-07T01:18:07.317Z,98.69
2022-10-07T01:20:09.257Z,98.67
2022-10-07T01:22:11.025Z,98.66
2022-10-07T01:24:12.216Z,98.63
2022-10-07T01:26:13.363Z,98.61
2022-10-07T01:28:15.316Z,98.61
2022-10-07T01:30:16.272Z,98.61
2022-10-07T01:32:18.226Z,98.61
2022-10-07T01:34:20.035Z,98.6
2022-10-07T01:36:21.320Z,98.64
2022-10-07T01:38:23.160Z,98.66
2022-10-07T01:41:08.458Z,98.78
2022-10-07T01:43:09.864Z,98.79
2022-10-07T01:45:10.956Z,98.8
2022-10-07T01:47:12.261Z,98.8
2022-10-07T01:49:13.578Z,98.77
2022-10-07T01:51:14.581Z,98.78
2022-10-07T01:53:16.269Z,98.79
2022-10-07T01:55:17.936Z,98.77
2022-10-07T01:57:19.496Z,98.78
2022-10-07T01:59:21.429Z,98.78
2022-10-07T02:01:23.168Z,98.77
2022-10-07T02:05:25.940Z,98.74
2022-10-07T02:09:28.924Z,98.74
2022-10-07T02:11:29.987Z,98.76
2022-10-07T02:13:31.635Z,98.78
2022-10-07T02:15:33.299Z,98.77
2022-10-07T02:17:34.265Z,98.75
2022-10-07T02:19:35.592Z,98.75
2022-10-07T02:21:36.752Z,98.76
2022-10-07T02:23:38.589Z,98.75
2022-10-07T02:25:40.231Z,98.76
2022-10-07T02:27:41.916Z,98.75
2022-10-07T02:29:43.310Z,98.75
2022-10-07T02:31:45.276Z,98.71
2022-10-07T02:33:47.230Z,98.7
2022-10-07T02:35:48.775Z,98.71
2022-10-07T02:37:50.339Z,98.72
2022-10-07T02:39:52.191Z,98.68
2022-10-07T02:41:54.071Z,98.67
2022-10-07T02:43:55.280Z,98.71
2022-10-07T02:45:56.313Z,98.72
2022-10-07T02:47:57.611Z,98.72
2022-10-07T02:52:00.873Z,98.71
2022-10-07T02:54:02.395Z,98.71
2022-10-07T02:56:03.849Z,98.71
2022-10-07T02:58:05.487Z,98.72
2022-10-07T03:00:10.877Z,98.71
2022-10-07T03:02:08.706Z,98.67
2022-10-07T03:04:09.758Z,98.68
2022-10-07T03:06:11.362Z,98.7
2022-10-07T03:08:13.133Z,98.7
2022-10-07T03:10:14.805Z,98.71
2022-10-07T03:12:16.542Z,98.67
2022-10-07T03:14:18.065Z,98.69
2022-10-07T03:16:19.385Z,98.69
2022-10-07T03:18:20.829Z,98.74
2022-10-07T03:20:22.323Z,98.73
2022-10-07T03:22:24.010Z,98.71
2022-10-07T03:24:25.563Z,98.69
2022-10-07T03:26:27.187Z,98.69
2022-10-07T03:28:29.012Z,98.68
2022-10-07T03:30:30.152Z,98.67
2022-10-07T03:34:32.743Z,98.64
2022-10-07T03:36:34.542Z,98.61
2022-10-07T03:38:35.543Z,98.62
2022-10-07T03:40:37.092Z,98.62
2022-10-07T03:42:38.095Z,98.58
2022-10-07T03:44:39.653Z,98.6
2022-10-07T03:46:40.969Z,98.58
2022-10-07T03:48:42.781Z,98.53
2022-10-07T03:50:44.186Z,98.49
2022-10-07T03:52:45.863Z,98.5
2022-10-07T03:54:47.330Z,98.49
2022-10-07T03:56:48.637Z,98.47
2022-10-07T03:58:50.394Z,98.47
2022-10-07T04:00:51.442Z,98.46
2022-10-07T04:02:53.171Z,98.44
2022-10-07T04:06:56.354Z,98.41
2022-10-07T04:08:57.496Z,98.39
2022-10-07T04:10:58.976Z,98.36
2022-10-07T04:13:00.813Z,98.31
2022-10-07T04:17:03.730Z,98.25
2022-10-07T04:19:04.998Z,98.27
2022-10-07T04:21:06.207Z,98.3
2022-10-07T04:23:07.409Z,98.36
2022-10-07T04:25:09.019Z,98.34
2022-10-07T04:27:10.179Z,98.36
2022-10-07T04:29:11.394Z,98.29
2022-10-07T04:33:14.001Z,98.23
2022-10-07T04:35:15.355Z,98.25
2022-10-07T04:37:16.968Z,98.26
2022-10-07T04:39:18.171Z,98.29
2022-10-07T04:41:20.094Z,98.3
2022-10-07T04:43:21.849Z,98.31
2022-10-07T04:45:23.279Z,98.31
2022-10-07T04:47:25.129Z,98.33
2022-10-07T04:49:26.761Z,98.31
2022-10-07T04:51:28.416Z,98.28
2022-10-07T04:53:29.506Z,98.26
2022-10-07T04:55:31.182Z,98.21
2022-10-07T04:59:34.506Z,98.22
2022-10-07T05:01:35.294Z,98.18
2022-10-07T05:05:37.785Z,98.08
2022-10-07T05:07:39.520Z,98.07
2022-10-07T05:09:40.513Z,98.01
2022-10-07T05:11:42.438Z,97.93
2022-10-07T05:13:44.016Z,97.87
2022-10-07T05:15:45.237Z,97.83
2022-10-07T05:17:46.510Z,97.73
2022-10-07T05:19:48.087Z,97.69
2022-10-07T05:21:49.642Z,97.66
2022-10-07T05:23:50.764Z,97.62
2022-10-07T05:25:52.142Z,97.47
2022-10-07T05:27:53.945Z,97.36
2022-10-07T05:29:55.064Z,97.32
2022-10-07T05:31:59.787Z,97.14
2022-10-07T05:33:58.544Z,97
2022-10-07T05:35:59.868Z,96.97
2022-10-07T05:38:01.544Z,96.89
2022-10-07T05:40:03.482Z,96.88
2022-10-07T05:44:06.151Z,96.95
2022-10-07T05:46:07.721Z,96.93
2022-10-07T05:48:09.240Z,96.95
2022-10-07T05:50:10.774Z,96.7
2022-10-07T05:52:11.785Z,96.85
2022-10-07T05:54:13.498Z,96.92
2022-10-07T05:58:16.747Z,96.8
2022-10-07T06:00:17.846Z,96.73
2022-10-07T06:02:19.699Z,96.45
2022-10-07T06:04:20.713Z,96.54
2022-10-07T06:06:22.405Z,96.54
2022-10-07T06:08:23.949Z,96.4
2022-10-07T06:10:25.546Z,96.46
2022-10-07T06:12:27.257Z,96.52
2022-10-07T06:14:29.044Z,96.49
2022-10-07T06:16:30.825Z,96.6
2022-10-07T06:18:32.312Z,96.7
2022-10-07T06:20:33.430Z,96.7
2022-10-07T06:22:35.007Z,96.71
2022-10-07T06:24:36.235Z,96.68
2022-10-07T06:26:37.600Z,96.62
2022-10-07T06:28:39.084Z,96.48
2022-10-07T06:30:40.135Z,96.44
2022-10-07T06:32:41.427Z,96.44
2022-10-07T06:36:43.732Z,96.14
2022-10-07T06:40:46.096Z,96.11
2022-10-07T06:42:47.415Z,96.06
2022-10-07T06:44:48.922Z,95.86
2022-10-07T06:46:50.131Z,95.62
2022-10-07T06:50:53.166Z,95.22
2022-10-07T06:52:55.015Z,95.3
2022-10-07T06:54:56.083Z,95.2
2022-10-07T06:56:57.255Z,95.05
2022-10-07T06:58:58.746Z,94.95
2022-10-07T07:01:00.198Z,95.03
2022-10-07T07:03:01.782Z,94.99
2022-10-07T07:07:04.354Z,94.41
2022-10-07T07:09:05.909Z,94.51
2022-10-07T07:11:06.986Z,94.87
2022-10-07T07:13:08.418Z,94.55
2022-10-07T07:15:09.725Z,94.37
2022-10-07T07:17:11.200Z,94.38
2022-10-07T07:19:12.357Z,94.82
2022-10-07T07:21:13.435Z,94.74
2022-10-07T07:23:15.066Z,95.1
2022-10-07T07:25:16.316Z,94.92
2022-10-07T07:27:17.655Z,94.38
2022-10-07T07:29:18.605Z,95.32
2022-10-07T07:31:19.616Z,95.09
2022-10-07T07:33:21.317Z,95.13
2022-10-07T07:35:23.033Z,94.71
2022-10-07T07:39:25.685Z,95.06
2022-10-07T07:41:27.171Z,93.97
2022-10-07T07:43:28.287Z,94.42
2022-10-07T07:45:29.400Z,94.3
2022-10-07T07:47:31.221Z,93.5
2022-10-07T07:49:32.316Z,93.06
2022-10-07T07:51:33.232Z,91.82
2022-10-07T07:53:34.770Z,90.75
2022-10-07T07:55:35.833Z,90
2022-10-07T07:57:36.859Z,90.09
2022-10-07T07:59:38.346Z,89.81
2022-10-07T08:01:39.939Z,89.81
2022-10-07T08:03:41.476Z,90.14
2022-10-07T08:05:42.614Z,90.62
2022-10-07T08:07:44.518Z,90.59
2022-10-07T08:09:45.781Z,90.41
2022-10-07T08:11:46.924Z,90.76
2022-10-07T08:13:48.137Z,90.51
2022-10-07T08:15:49.555Z,89.85
2022-10-07T08:17:51.357Z,90.17
2022-10-07T08:21:54.642Z,90.11
2022-10-07T08:23:55.730Z,90.07
2022-10-07T08:26:40.444Z,89.45
2022-10-07T08:28:42.320Z,88.55
2022-10-07T08:30:44.119Z,89.39
2022-10-07T08:32:45.372Z,88.33
2022-10-07T08:34:46.797Z,88.7
2022-10-07T08:36:48.663Z,87.7
2022-10-07T08:38:50.392Z,87.66
2022-10-07T08:40:51.784Z,87.64
2022-10-07T08:42:52.753Z,86.87
2022-10-07T08:44:54.421Z,86.61
2022-10-07T08:48:57.157Z,86.16
2022-10-07T08:50:58.175Z,85.82
2022-10-07T08:53:00.009Z,84.93
2022-10-07T08:55:01.838Z,85.56
2022-10-07T08:59:05.046Z,86.34
2022-10-07T09:01:06.786Z,85
2022-10-07T09:03:08.449Z,83.38
2022-10-07T09:05:10.215Z,83.29
2022-10-07T09:07:11.913Z,82.77
2022-10-07T09:09:12.815Z,82.02
2022-10-07T09:11:14.126Z,84.38
2022-10-07T09:13:15.374Z,83.26
2022-10-07T09:15:16.417Z,83.69
2022-10-07T09:17:18.207Z,83.41
2022-10-07T09:19:20.580Z,83.29
2022-10-07T09:21:21.974Z,82.7
2022-10-07T09:23:23.749Z,83.12
2022-10-07T09:25:25.298Z,84.03
2022-10-07T09:27:26.989Z,83.42
2022-10-07T09:31:30.210Z,82.99
2022-10-07T09:33:31.021Z,81.13
2022-10-07T09:35:32.783Z,82.21
2022-10-07T09:37:34.412Z,80.7
2022-10-07T09:41:37.066Z,82.89
2022-10-07T09:43:38.609Z,79.9
2022-10-07T09:45:40.072Z,80.75
2022-10-07T09:47:41.443Z,81.35
2022-10-07T09:51:44.461Z,80.23
2022-10-07T09:53:45.771Z,78.58
2022-10-07T09:55:47.610Z,78.26
2022-10-07T09:57:48.799Z,78.08
2022-10-07T09:59:49.998Z,78.68
2022-10-07T10:01:52.460Z,78.13
2022-10-07T10:03:53.698Z,79.67
2022-10-07T10:05:54.813Z,78.29
2022-10-07T10:07:56.280Z,77.68
2022-10-07T10:09:58.267Z,76.97
2022-10-07T10:14:00.645Z,76.42
2022-10-07T10:16:02.334Z,75.59
2022-10-07T10:18:03.631Z,76.04
2022-10-07T10:20:05.029Z,75.86
2022-10-07T10:22:05.960Z,76.17
2022-10-07T10:24:07.731Z,75.05
2022-10-07T10:28:10.183Z,72.93
2022-10-07T10:30:11.643Z,74.64
2022-10-07T10:32:12.834Z,72.44
2022-10-07T10:34:14.616Z,72.31
2022-10-07T10:36:15.865Z,73.7
2022-10-07T10:40:19.007Z,73.71
2022-10-07T10:42:19.319Z,72.27
2022-10-07T10:44:20.779Z,71.28
2022-10-07T10:46:21.950Z,72.45
2022-10-07T10:48:23.535Z,70.46
2022-10-07T10:50:25.123Z,71.02
2022-10-07T10:52:26.814Z,69.8
2022-10-07T10:54:27.426Z,70.44
2022-10-07T10:56:28.602Z,69.57
2022-10-07T10:58:29.751Z,69.43
2022-10-07T11:00:31.381Z,69.14
2022-10-07T11:02:32.832Z,69.32
2022-10-07T11:04:34.418Z,68.58
2022-10-07T11:06:35.238Z,69.41
2022-10-07T11:12:39.377Z,68.5
2022-10-07T11:14:40.504Z,67.65
2022-10-07T11:16:41.983Z,66.34
2022-10-07T11:18:42.983Z,66.12
2022-10-07T11:22:47.350Z,67.3
2022-10-07T11:24:48.521Z,64.33
2022-10-07T11:26:50.135Z,65.67
2022-10-07T11:28:51.081Z,66.11
2022-10-07T11:30:52.131Z,66.27
2022-10-07T11:32:53.706Z,63.7
2022-10-07T11:34:55.064Z,67.35
2022-10-07T11:36:56.453Z,67.03
2022-10-07T11:38:57.913Z,66.95
2022-10-07T11:40:58.808Z,65.73
2022-10-07T11:43:00.131Z,65.85
2022-10-07T11:45:01.761Z,64.26
2022-10-07T11:47:03.110Z,64.82
2022-10-07T11:49:04.236Z,65.13
2022-10-07T11:51:05.926Z,67.71
2022-10-07T11:55:09.209Z,65.14
2022-10-07T11:57:10.743Z,68.98
2022-10-07T11:59:12.055Z,66.62
2022-10-07T12:01:13.147Z,67.27
2022-10-07T12:05:15.355Z,67.03
2022-10-07T12:07:17.146Z,69.54
2022-10-07T12:09:18.692Z,67.41
2022-10-07T12:11:19.721Z,66.89
2022-10-07T12:15:22.322Z,68.14
2022-10-07T12:17:23.647Z,69.95
2022-10-07T12:19:25.398Z,67.3
2022-10-07T12:21:27.061Z,69.47
2022-10-07T12:23:27.970Z,70.71
2022-10-07T12:25:29.002Z,69.1
2022-10-07T12:27:30.520Z,65.6
2022-10-07T12:29:31.818Z,63.54
2022-10-07T12:31:33.321Z,65.29
2022-10-07T12:33:34.861Z,65.17
2022-10-07T12:35:35.983Z,64.68
2022-10-07T12:37:37.107Z,62.03
2022-10-07T12:39:38.809Z,62.94
2022-10-07T12:41:40.725Z,60.37
2022-10-07T12:45:42.800Z,58.97
2022-10-07T12:47:43.534Z,59.67
2022-10-07T12:49:45.141Z,58.19
2022-10-07T12:53:48.088Z,60.57
2022-10-07T12:55:48.914Z,61.66
2022-10-07T12:57:50.112Z,60.56
2022-10-07T12:59:50.946Z,63.58
2022-10-07T13:03:53.558Z,64.22
2022-10-07T13:05:55.153Z,60.93
2022-10-07T13:07:56.722Z,62.96
2022-10-07T13:09:57.943Z,62.51
2022-10-07T13:11:59.305Z,62.01
2022-10-07T13:14:00.333Z,62.32
2022-10-07T13:16:01.883Z,63.54
2022-10-07T13:18:05.240Z,61.97
2022-10-07T13:20:04.987Z,61.72
2022-10-07T13:22:06.127Z,62.66
2022-10-07T13:24:07.564Z,63.75
2022-10-07T13:26:09.036Z,65.15
2022-10-07T13:30:11.550Z,62.43
2022-10-07T13:32:12.413Z,63.19
2022-10-07T13:34:14.132Z,65.32
2022-10-07T13:36:15.431Z,64.17
2022-10-07T13:38:17.163Z,64.68
2022-10-07T13:40:18.694Z,65.39
2022-10-07T13:42:21.385Z,64.31
2022-10-07T13:46:22.583Z,61.75
2022-10-07T13:48:23.561Z,62.19
2022-10-07T13:50:25.073Z,62.82
2022-10-07T13:52:25.874Z,63.94
2022-10-07T13:54:27.678Z,64.75
2022-10-07T13:56:28.972Z,66.61
2022-10-07T13:58:30.155Z,67.98
2022-10-07T14:00:31.867Z,66.38
2022-10-07T14:02:36.496Z,67.53
2022-10-07T14:04:33.635Z,67.04
2022-10-07T14:06:35.228Z,67.42
2022-10-07T14:08:36.785Z,68.31
2022-10-07T14:10:37.935Z,66.76
2022-10-07T14:12:38.922Z,66.59
2022-10-07T14:16:41.281Z,66.33
2022-10-07T14:20:43.639Z,66.03
2022-10-07T14:24:45.725Z,66.81
2022-10-07T14:26:46.740Z,66.81
2022-10-07T14:28:48.381Z,66.71
2022-10-07T14:30:53.418Z,67.94
2022-10-07T14:32:51.227Z,67.22
2022-10-07T14:34:52.919Z,69.74
2022-10-07T14:36:53.931Z,68.96
2022-10-07T14:38:55.211Z,68
2022-10-07T14:40:56.627Z,72.57
2022-10-07T14:42:58.240Z,76.32
2022-10-07T14:44:59.626Z,75.48
2022-10-07T14:47:00.870Z,75.86
2022-10-07T14:49:02.549Z,77.25
2022-10-07T14:51:03.802Z,76.49
2022-10-07T14:53:04.945Z,75.77
2022-10-07T14:57:07.069Z,73.24
2022-10-07T14:59:08.367Z,74.79
2022-10-07T15:01:10.163Z,75.64
2022-10-07T15:03:11.070Z,76.38
2022-10-07T15:05:12.159Z,77.02
2022-10-07T15:07:13.748Z,75.94
2022-10-07T15:09:14.627Z,78.06
2022-10-07T15:09:58.362Z,76
2022-10-07T15:11:59.504Z,75.27
2022-10-07T15:14:00.427Z,75.88
2022-10-07T15:16:02.193Z,75.55
2022-10-07T15:18:03.806Z,77.48
2022-10-07T15:20:05.177Z,77.18
2022-10-07T15:22:06.376Z,74.86
2022-10-07T15:24:08.010Z,75.33
2022-10-07T15:26:09.449Z,80.75
2022-10-07T15:28:10.905Z,80.93
2022-10-07T15:30:11.763Z,77.91
2022-10-07T15:32:12.935Z,74.25
2022-10-07T15:34:14.231Z,76.03
2022-10-07T15:36:15.298Z,78.15
2022-10-07T15:40:18.291Z,81.35
2022-10-07T15:42:19.944Z,81.71
2022-10-07T15:44:20.807Z,81.5
2022-10-07T15:46:22.257Z,81.6
2022-10-07T15:50:24.701Z,80.86
2022-10-07T15:52:25.546Z,79.24
2022-10-07T15:54:27.186Z,78.23
2022-10-07T15:56:28.195Z,76.62
2022-10-07T15:58:29.747Z,76.35
2022-10-07T16:00:30.528Z,76.31
2022-10-07T16:02:32.178Z,76.09
2022-10-07T16:04:33.900Z,76.13
2022-10-07T16:06:34.865Z,79.97
2022-10-07T16:08:36.649Z,82.58
2022-10-07T16:10:37.825Z,83.24
2022-10-07T16:12:39.229Z,81.84
2022-10-07T16:14:40.135Z,81.17
2022-10-07T16:16:41.179Z,83.39
2022-10-07T16:18:42.914Z,84.06
2022-10-07T16:20:43.887Z,84.54
2022-10-07T16:22:45.647Z,83.73
2022-10-07T16:24:46.941Z,83.73
2022-10-07T16:28:49.561Z,83.24
2022-10-07T16:32:52.466Z,83.48
2022-10-07T16:34:53.683Z,86.93
2022-10-07T16:36:55.221Z,88.65
2022-10-07T16:38:56.731Z,88.63
2022-10-07T16:40:58.564Z,88.76
2022-10-07T16:42:59.635Z,88.91
2022-10-07T16:45:00.795Z,88.44
2022-10-07T16:47:02.455Z,88.45
2022-10-07T16:49:03.967Z,88.3
2022-10-07T16:51:04.879Z,88.12
2022-10-07T16:53:05.930Z,87.93
2022-10-07T16:55:07.216Z,88.21
2022-10-07T16:57:08.777Z,87.92
2022-10-07T16:59:09.736Z,87.86
2022-10-07T17:01:11.609Z,88.01
2022-10-07T17:03:13.275Z,87.96
2022-10-07T17:05:14.362Z,87.99
2022-10-07T17:07:15.793Z,87.68
2022-10-07T17:09:17.318Z,87.72
2022-10-07T17:11:18.625Z,88.27
2022-10-07T17:13:19.910Z,88.49
2022-10-07T17:15:20.773Z,88.54
2022-10-07T17:17:22.070Z,88.77
2022-10-07T17:21:24.505Z,89.01
2022-10-07T17:23:26.071Z,89.37
2022-10-07T17:25:27.365Z,89.3
2022-10-07T17:27:28.916Z,89.35
2022-10-07T17:31:32.191Z,90
2022-10-07T17:33:33.394Z,90.14
2022-10-07T17:35:35.041Z,90.32
2022-10-07T17:37:36.263Z,90.85
2022-10-07T17:39:37.847Z,91.76
2022-10-07T17:41:39.272Z,91.71
2022-10-07T17:43:40.571Z,91.48
2022-10-07T17:45:42.098Z,91.96
2022-10-07T17:47:43.289Z,92.08
2022-10-07T17:49:44.579Z,92.22
2022-10-07T17:51:46.313Z,92.22
2022-10-07T17:53:47.872Z,92.22
2022-10-07T17:55:48.992Z,92.45
2022-10-07T17:57:50.391Z,91.85
2022-10-07T17:59:51.354Z,91.75
2022-10-07T18:01:53.060Z,91.56
2022-10-07T18:03:54.429Z,91.51
2022-10-07T18:05:55.370Z,91.24
2022-10-07T18:07:56.394Z,91.34
2022-10-07T18:09:58.001Z,92.48
2022-10-07T18:11:59.272Z,93.1
2022-10-07T18:14:00.546Z,93.22
2022-10-07T18:16:01.863Z,93.23
2022-10-07T18:18:03.602Z,93.19
2022-10-07T18:20:05.013Z,93.4
2022-10-07T18:22:06.425Z,93.32
2022-10-07T18:24:08.144Z,93.6
2022-10-07T18:26:09.032Z,94.03
2022-10-07T18:28:10.301Z,94.34
2022-10-07T18:30:11.313Z,94.61
2022-10-07T18:32:12.889Z,94.62
2022-10-07T18:34:13.839Z,94.66
2022-10-07T18:36:15.727Z,94.76
2022-10-07T18:38:16.881Z,95.02
2022-10-07T18:40:18.175Z,95.56
2022-10-07T18:42:19.787Z,95.42
2022-10-07T18:44:21.484Z,95.75
2022-10-07T18:46:23.162Z,95.78
2022-10-07T18:48:24.288Z,95.92
2022-10-07T18:50:26.655Z,95.84
2022-10-07T18:52:26.971Z,95.63
2022-10-07T18:56:29.779Z,95.6
2022-10-07T18:58:31.220Z,95.59
2022-10-07T19:00:32.828Z,95.53
2022-10-07T19:02:34.062Z,95.55
2022-10-07T19:04:35.226Z,95.64
2022-10-07T19:06:36.962Z,95.96
2022-10-07T19:08:38.417Z,95.93
2022-10-07T19:10:48.273Z,95.95
2022-10-07T19:12:41.573Z,96.2
2022-10-07T19:14:42.554Z,96.27
2022-10-07T19:16:43.668Z,96.4
2022-10-07T19:18:44.583Z,96.45
2022-10-07T19:20:46.383Z,96.52
2022-10-07T19:22:48.287Z,96.47
2022-10-07T19:24:49.834Z,96.46
2022-10-07T19:26:51.130Z,96.49
2022-10-07T19:28:52.110Z,96.54
2022-10-07T19:30:53.947Z,96.69
2022-10-07T19:32:54.959Z,96.78
2022-10-07T19:34:55.889Z,96.85
2022-10-07T19:36:57.314Z,96.98
2022-10-07T19:38:58.559Z,96.99
2022-10-07T19:40:59.710Z,97.03
2022-10-07T19:43:01.417Z,97.07
2022-10-07T19:45:02.777Z,97.01
2022-10-07T19:47:04.455Z,97
2022-10-07T19:49:05.840Z,97.07
2022-10-07T19:51:07.552Z,97.23
2022-10-07T19:55:10.148Z,97.19
2022-10-07T19:57:11.651Z,97.2
2022-10-07T19:59:13.196Z,97.15
2022-10-07T20:01:15.004Z,97.12
2022-10-07T20:03:16.019Z,97.1
2022-10-07T20:05:17.178Z,97.3
2022-10-07T20:07:18.492Z,97.4
2022-10-07T20:09:19.987Z,97.43
2022-10-07T20:11:21.665Z,97.39
2022-10-07T20:13:23.386Z,97.55
2022-10-07T20:15:24.954Z,97.59
2022-10-07T20:17:25.929Z,97.81
2022-10-07T20:19:27.782Z,97.92
2022-10-07T20:21:29.020Z,97.99
2022-10-07T20:23:29.934Z,98.02
2022-10-07T20:25:31.376Z,98.01
2022-10-07T20:27:32.665Z,98.01
2022-10-07T20:29:34.158Z,98.01
2022-10-07T20:31:35.470Z,97.98
2022-10-07T20:33:36.360Z,98
2022-10-07T20:37:38.529Z,98.03
2022-10-07T20:39:40.102Z,98.02
2022-10-07T20:41:41.659Z,98.09
2022-10-07T20:43:42.701Z,98
2022-10-07T20:45:44.598Z,98.03
2022-10-07T20:47:45.592Z,98.1
2022-10-07T20:49:46.829Z,98.15
2022-10-07T20:51:48.440Z,98.07
2022-10-07T20:53:49.361Z,97.95
2022-10-07T20:55:50.397Z,97.89
2022-10-07T20:57:52.093Z,97.81
2022-10-07T20:59:53.899Z,97.79
2022-10-07T21:01:55.323Z,97.8
2022-10-07T21:03:56.514Z,97.81
2022-10-07T21:05:57.902Z,97.9
2022-10-07T21:07:59.571Z,97.96
2022-10-07T21:10:00.791Z,97.92
2022-10-07T21:12:02.663Z,98.07
2022-10-07T21:14:03.992Z,98.26
2022-10-07T21:16:05.277Z,98.33
2022-10-07T21:18:06.447Z,98.3
2022-10-07T21:20:08.325Z,98.32
2022-10-07T21:22:09.685Z,98.3
2022-10-07T21:24:10.841Z,98.32
2022-10-07T21:26:11.993Z,98.28
2022-10-07T21:28:13.199Z,98.23
2022-10-07T21:30:14.202Z,97.99
2022-10-07T21:32:15.739Z,98.21
2022-10-07T21:36:19.071Z,98.39
2022-10-07T21:38:20.535Z,98.36
2022-10-07T21:40:22.027Z,98.39
2022-10-07T21:42:23.028Z,98.42
2022-10-07T21:44:24.235Z,98.44
2022-10-07T21:46:25.557Z,98.49
2022-10-07T21:48:26.824Z,98.5
2022-10-07T21:50:28.587Z,98.52
2022-10-07T21:52:30.521Z,98.49
2022-10-07T21:54:32.404Z,98.46
2022-10-07T21:55:40.340Z,98.44
2022-10-07T21:57:41.714Z,98.46
2022-10-07T21:59:43.461Z,98.45
2022-10-07T22:01:45.167Z,98.23
2022-10-07T22:03:46.720Z,98.23
2022-10-07T22:05:47.681Z,98.27
2022-10-07T22:07:48.904Z,98.3
2022-10-07T22:09:50.158Z,98.38
2022-10-07T22:13:53.552Z,98.38
2022-10-07T22:15:55.242Z,98.39
2022-10-07T22:17:56.106Z,98.43
2022-10-07T22:19:57.309Z,98.41
2022-10-07T22:21:58.317Z,98.44
2022-10-07T22:23:59.280Z,98.46
2022-10-07T22:26:00.679Z,98.64
2022-10-07T22:28:01.742Z,98.72
2022-10-07T22:30:03.324Z,98.73
2022-10-07T22:32:04.449Z,98.62
2022-10-07T22:34:05.864Z,98.62
2022-10-07T22:36:07.298Z,98.75
2022-10-07T22:38:08.859Z,98.67
2022-10-07T22:40:10.068Z,98.58
2022-10-07T22:42:11.093Z,98.51
2022-10-07T22:44:12.434Z,98.43
2022-10-07T22:46:14.326Z,98.42
2022-10-07T22:48:16.110Z,98.41
2022-10-07T22:50:17.199Z,98.36
2022-10-07T22:52:18.165Z,98.5
2022-10-07T22:54:19.796Z,98.43
2022-10-07T22:56:21.471Z,98.42
2022-10-07T22:58:23.304Z,98.39
2022-10-07T23:00:24.387Z,98.3
2022-10-07T23:02:25.726Z,98.33
2022-10-07T23:04:26.761Z,98.37
2022-10-07T23:06:28.309Z,98.36
2022-10-07T23:08:29.356Z,98.3
2022-10-07T23:12:32.136Z,98.4
2022-10-07T23:14:33.107Z,98.43
2022-10-07T23:16:34.335Z,98.47
2022-10-07T23:18:35.494Z,98.41
2022-10-07T23:22:39.204Z,98.31
2022-10-07T23:24:40.899Z,98.31
2022-10-07T23:26:42.016Z,98.3
2022-10-07T23:28:43.366Z,98.3
2022-10-07T23:30:45.249Z,98.34
2022-10-07T23:34:47.292Z,98.39
2022-10-07T23:36:49.074Z,98.37
2022-10-07T23:38:50.763Z,98.28
2022-10-07T23:40:51.927Z,98.41
2022-10-07T23:42:53.296Z,98.25
2022-10-07T23:44:54.418Z,98.19
2022-10-07T23:46:55.734Z,98.25
2022-10-07T23:48:56.635Z,98.26
2022-10-07T23:50:58.470Z,98.31
2022-10-07T23:52:59.638Z,98.29
2022-10-07T23:55:01.493Z,98.33
2022-10-07T23:57:03.073Z,98.36
2022-10-07T23:59:04.600Z,98.36
